Time;durP1;ratioP1;P1;durP2;ratioP2;P2;SDS_P1;SDS_P2;PMS_P1;PMS_P2;Temp;Humidity;BMP_temperature;BMP_pressure;BME280_temperature;BME280_humidity;BME280_pressure;Samples;Min_cycle;Max_cycle;Signal;HPM_P1;HPM_P2
2022/12/16 00:00:36;;;;;;;13.43;9.13;;;0.00;99.90;;;;;;4875018;29;20051;-74
2022/12/16 00:03:02;;;;;;;11.77;8.25;;;-0.10;99.90;;;;;;4893393;29;20050;-74
2022/12/16 00:05:28;;;;;;;10.60;7.90;;;-0.10;99.90;;;;;;4876923;29;20044;-74
2022/12/16 00:07:54;;;;;;;10.05;7.40;;;-0.20;99.90;;;;;;4892221;29;20051;-74
2022/12/16 00:10:21;;;;;;;8.95;6.50;;;-0.30;99.90;;;;;;4892899;29;20383;-74
2022/12/16 00:12:46;;;;;;;8.55;6.43;;;-0.40;99.90;;;;;;4880598;29;20052;-74
2022/12/16 00:15:12;;;;;;;8.30;5.90;;;-0.50;99.90;;;;;;4895720;29;20454;-74
2022/12/16 00:17:38;;;;;;;6.97;5.17;;;-0.60;99.90;;;;;;4865032;29;20316;-74
2022/12/16 00:20:05;;;;;;;6.10;4.43;;;-0.60;99.90;;;;;;4895863;29;20399;-74
2022/12/16 00:22:31;;;;;;;7.93;5.50;;;-0.60;99.90;;;;;;4896177;29;20076;-74
2022/12/16 00:24:56;;;;;;;7.82;5.50;;;-0.60;99.90;;;;;;4896634;29;20087;-74
2022/12/16 00:27:22;;;;;;;6.72;4.95;;;-0.60;99.90;;;;;;4896691;29;20048;-74
2022/12/16 00:29:47;;;;;;;6.18;4.72;;;-0.60;99.90;;;;;;4913509;29;20485;-74
2022/12/16 00:32:13;;;;;;;7.82;4.50;;;-0.60;99.90;;;;;;4881247;29;20048;-74
2022/12/16 00:34:39;;;;;;;5.70;4.43;;;-0.60;99.90;;;;;;4896554;29;20467;-74
2022/12/16 00:37:05;;;;;;;7.78;4.80;;;-0.50;99.90;;;;;;4897160;29;20147;-74
2022/12/16 00:39:30;;;;;;;7.50;5.43;;;-0.50;99.90;;;;;;4896543;29;20044;-74
2022/12/16 00:41:56;;;;;;;10.48;7.28;;;-0.50;99.90;;;;;;4895871;29;20399;-74
2022/12/16 00:44:22;;;;;;;9.53;7.53;;;-0.40;99.90;;;;;;4896339;29;20044;-74
2022/12/16 00:46:47;;;;;;;9.73;7.13;;;-0.40;99.90;;;;;;4895489;29;20421;-74
2022/12/16 00:49:13;;;;;;;9.20;6.15;;;-0.20;99.90;;;;;;4880436;29;20119;-74
2022/12/16 00:51:39;;;;;;;6.75;5.18;;;-0.10;99.90;;;;;;4893860;29;20111;-74
2022/12/16 00:54:04;;;;;;;7.90;5.80;;;0.00;99.90;;;;;;4881160;29;20068;-74
2022/12/16 00:56:30;;;;;;;5.75;4.45;;;0.20;99.90;;;;;;4895258;29;20798;-74
2022/12/16 00:58:56;;;;;;;6.05;4.25;;;0.30;99.90;;;;;;4896109;29;20127;-73
2022/12/16 01:01:22;;;;;;;9.90;5.50;;;0.40;99.90;;;;;;4896486;29;20068;-73
2022/12/16 01:03:47;;;;;;;6.60;4.45;;;0.50;99.90;;;;;;4894729;29;20051;-74
2022/12/16 01:06:15;;;;;;;7.13;4.70;;;0.70;99.90;;;;;;4894745;29;20052;-74
2022/12/16 01:08:47;;;;;;;5.40;3.72;;;0.80;99.90;;;;;;4892737;29;20040;-74
2022/12/16 01:11:19;;;;;;;5.53;3.65;;;0.90;99.90;;;;;;4893978;29;20098;-73
2022/12/16 01:13:49;;;;;;;8.15;4.53;;;1.00;99.90;;;;;;4895523;29;20052;-74
2022/12/16 01:16:14;;;;;;;8.63;4.28;;;1.20;99.90;;;;;;4896352;29;20159;-73
2022/12/16 01:18:40;;;;;;;7.10;4.72;;;1.40;99.90;;;;;;4895782;29;20136;-74
2022/12/16 01:21:07;;;;;;;6.67;4.50;;;1.50;99.90;;;;;;4895344;29;20056;-74
2022/12/16 01:23:34;;;;;;;5.30;3.97;;;1.60;99.90;;;;;;4894254;29;20300;-73
2022/12/16 01:26:00;;;;;;;;;;;1.70;99.90;;;;;;4879856;29;20394;-73
2022/12/16 01:28:27;;;;;;;6.57;3.90;;;1.70;99.90;;;;;;4894523;29;19923;-73
2022/12/16 01:31:00;;;;;;;7.47;3.90;;;1.70;99.90;;;;;;4894465;29;20103;-73
2022/12/16 01:33:31;;;;;;;4.95;3.47;;;1.80;99.90;;;;;;4894758;29;20217;-73
2022/12/16 01:36:15;;;;;;;6.05;4.03;;;1.80;99.90;;;;;;4893792;29;20044;-74
2022/12/16 01:38:43;;;;;;;9.32;4.50;;;1.90;99.90;;;;;;4895665;29;20047;-74
2022/12/16 01:41:10;;;;;;;4.68;3.55;;;2.00;99.90;;;;;;4911526;29;20124;-73
2022/12/16 01:43:38;;;;;;;4.40;3.42;;;2.00;99.90;;;;;;4894840;29;20088;-75
2022/12/16 01:46:08;;;;;;;7.10;3.53;;;2.00;99.90;;;;;;4894108;29;20124;-74
2022/12/16 01:48:43;;;;;;;4.32;3.33;;;2.00;99.90;;;;;;4912419;29;20028;-74
2022/12/16 01:51:25;;;;;;;7.88;4.05;;;2.00;99.90;;;;;;4892891;29;20491;-74
2022/12/16 01:53:56;;;;;;;4.25;3.70;;;2.20;99.90;;;;;;4894624;29;20091;-74
2022/12/16 01:56:24;;;;;;;5.68;3.70;;;2.30;99.90;;;;;;4895026;29;20464;-74
2022/12/16 01:58:51;;;;;;;4.68;3.60;;;2.20;99.90;;;;;;4892718;29;20052;-74
2022/12/16 02:01:16;;;;;;;;;;;2.30;99.90;;;;;;4861714;29;20048;-74
2022/12/16 02:03:43;;;;;;;4.70;3.45;;;2.20;99.90;;;;;;4911136;29;20436;-74
2022/12/16 02:06:09;;;;;;;;;;;2.20;99.90;;;;;;4893741;29;20478;-74
2022/12/16 02:08:34;;;;;;;4.30;3.10;;;2.20;99.90;;;;;;4879051;29;20016;-74
2022/12/16 02:11:22;;;;;;;3.80;2.92;;;2.20;99.90;;;;;;4893764;29;20068;-74
2022/12/16 02:13:53;;;;;;;3.92;2.95;;;2.20;99.90;;;;;;4890065;29;20040;-74
2022/12/16 02:16:33;;;;;;;5.22;3.47;;;2.20;99.90;;;;;;4878343;29;20080;-74
2022/12/16 02:19:30;;;;;;;5.60;3.90;;;2.10;99.90;;;;;;4892367;29;20380;-74
2022/12/16 02:22:11;;;;;;;6.00;3.70;;;2.20;99.90;;;;;;4877763;29;20048;-74
2022/12/16 02:24:45;;;;;;;4.97;3.47;;;2.10;99.90;;;;;;4892645;29;20308;-71
2022/12/16 02:27:20;;;;;;;3.38;2.63;;;2.10;99.90;;;;;;4892980;29;20063;-71
2022/12/16 02:30:24;;;;;;;4.07;2.50;;;2.00;99.90;;;;;;4889649;29;21261;-71
2022/12/16 02:32:53;;;;;;;3.22;2.40;;;1.90;99.90;;;;;;4863061;29;20505;-71
2022/12/16 02:35:57;;;;;;;3.28;2.40;;;1.80;99.90;;;;;;4893295;29;20048;-71
2022/12/16 02:38:37;;;;;;;3.00;2.50;;;1.80;99.90;;;;;;4825897;29;20219;-71
2022/12/16 02:41:11;;;;;;;2.72;1.90;;;1.80;99.90;;;;;;4893467;29;20089;-72
2022/12/16 02:43:45;;;;;;;2.97;2.17;;;1.80;99.90;;;;;;4892109;29;20052;-71
2022/12/16 02:46:11;;;;;;;2.88;2.03;;;1.70;99.90;;;;;;4893868;29;20577;-71
2022/12/16 02:48:37;;;;;;;6.75;3.13;;;1.70;99.90;;;;;;4892895;29;20138;-71
2022/12/16 02:51:03;;;;;;;4.85;3.20;;;1.70;99.90;;;;;;4876318;29;20032;-71
2022/12/16 02:53:31;;;;;;;4.18;3.10;;;1.70;99.90;;;;;;4893283;29;20044;-71
2022/12/16 02:56:46;;;;;;;5.47;3.65;;;1.70;99.90;;;;;;4892121;29;20036;-71
2022/12/16 02:59:18;;;;;;;4.30;3.08;;;1.70;99.90;;;;;;4799806;29;20057;-71
2022/12/16 03:01:56;;;;;;;4.25;3.28;;;1.70;99.90;;;;;;4799855;29;20139;-71
2022/12/16 03:04:39;;;;;;;6.35;4.10;;;1.70;99.90;;;;;;4857631;29;20056;-71
2022/12/16 03:07:08;;;;;;;5.13;3.83;;;1.80;99.90;;;;;;4892204;29;20044;-71
2022/12/16 03:09:38;;;;;;;4.30;3.30;;;1.80;99.90;;;;;;4891295;29;20048;-71
2022/12/16 03:12:08;;;;;;;4.60;3.65;;;1.80;99.90;;;;;;4892242;29;20138;-71
2022/12/16 03:14:37;;;;;;;4.78;3.10;;;1.80;99.90;;;;;;4891769;29;20063;-71
2022/12/16 03:17:04;;;;;;;5.15;4.28;;;1.80;99.90;;;;;;4892620;29;20079;-71
2022/12/16 03:19:30;;;;;;;5.03;4.18;;;1.90;99.90;;;;;;4892854;29;20063;-70
2022/12/16 03:22:11;;;;;;;6.03;4.88;;;1.90;99.90;;;;;;4875773;29;20408;-70
2022/12/16 03:24:38;;;;;;;9.57;5.70;;;2.00;99.90;;;;;;4890845;29;20048;-70
2022/12/16 03:27:32;;;;;;;9.43;5.70;;;2.00;99.90;;;;;;4875715;29;20036;-71
2022/12/16 03:30:08;;;;;;;10.48;6.07;;;2.10;99.90;;;;;;4892163;29;20071;-71
2022/12/16 03:32:47;;;;;;;7.40;6.60;;;2.10;99.90;;;;;;4907654;29;20485;-71
2022/12/16 03:35:15;;;;;;;8.95;7.53;;;2.10;99.90;;;;;;4892236;29;20122;-71
2022/12/16 03:37:45;;;;;;;11.82;9.07;;;2.20;99.90;;;;;;4892217;29;20044;-71
2022/12/16 03:40:12;;;;;;;16.55;11.93;;;2.20;99.90;;;;;;4876195;29;20059;-71
2022/12/16 03:42:39;;;;;;;17.70;11.95;;;2.30;99.90;;;;;;4893640;29;20123;-71
2022/12/16 03:45:07;;;;;;;17.95;13.50;;;2.30;99.90;;;;;;4908689;29;20588;-73
2022/12/16 03:47:33;;;;;;;19.13;13.50;;;2.30;99.90;;;;;;4897224;29;20032;-74
2022/12/16 03:49:58;;;;;;;19.67;15.57;;;2.20;99.90;;;;;;4896695;29;20087;-74
2022/12/16 03:52:24;;;;;;;24.88;18.63;;;2.30;99.90;;;;;;4894873;29;20040;-74
2022/12/16 03:54:50;;;;;;;23.47;17.53;;;2.30;99.90;;;;;;4912184;29;20044;-73
2022/12/16 03:57:16;;;;;;;27.33;17.88;;;2.20;99.90;;;;;;4895824;29;20059;-74
2022/12/16 03:59:42;;;;;;;21.60;16.08;;;2.20;99.90;;;;;;4914454;29;21194;-74
2022/12/16 04:02:07;;;;;;;26.30;19.27;;;2.20;99.90;;;;;;4895661;29;20044;-75
2022/12/16 04:04:33;;;;;;;25.50;16.95;;;2.10;99.90;;;;;;4913222;29;20401;-74
2022/12/16 04:09:43;;;;;;;30.20;20.95;;;2.10;99.90;;;;;;4895047;29;20048;-74
2022/12/16 04:25:56;;;;;;;31.55;21.10;;;1.70;99.90;;;;;;4883667;29;20422;-71
2022/12/16 04:28:22;;;;;;;32.88;21.88;;;1.70;99.90;;;;;;4894989;29;20036;-71
2022/12/16 04:30:48;;;;;;;36.97;22.73;;;1.70;99.90;;;;;;4893975;29;20048;-71
